sensor_id;sensor_type;location;lat;lon;timestamp;temperature;humidity
69162;DHT22;56269;51.738;21.652;2023-05-19T00:02:17;9.21;99.99
69162;DHT22;56269;51.738;21.652;2023-05-19T00:04:45;9.21;99.99
69162;DHT22;56269;51.738;21.652;2023-05-19T00:07:16;9.20;99.99
69162;DHT22;56269;51.738;21.652;2023-05-19T00:09:44;9.18;99.99
69162;DHT22;56269;51.738;21.652;2023-05-19T00:12:11;9.21;99.99
69162;DHT22;56269;51.738;21.652;2023-05-19T00:14:37;9.21;99.99
69162;DHT22;56269;51.738;21.652;2023-05-19T00:17:04;9.24;99.99
69162;DHT22;56269;51.738;21.652;2023-05-19T00:19:30;9.21;99.99
69162;DHT22;56269;51.738;21.652;2023-05-19T00:21:57;9.23;99.99
69162;DHT22;56269;51.738;21.652;2023-05-19T00:24:23;9.26;99.99
69162;DHT22;56269;51.738;21.652;2023-05-19T00:26:50;9.23;99.99
69162;DHT22;56269;51.738;21.652;2023-05-19T00:29:16;9.26;99.99
69162;DHT22;56269;51.738;21.652;2023-05-19T00:31:44;9.21;99.99
69162;DHT22;56269;51.738;21.652;2023-05-19T00:34:10;9.23;99.99
69162;DHT22;56269;51.738;21.652;2023-05-19T00:36:36;9.20;99.99
69162;DHT22;56269;51.738;21.652;2023-05-19T00:39:02;9.23;99.99
69162;DHT22;56269;51.738;21.652;2023-05-19T00:41:28;9.20;99.99
69162;DHT22;56269;51.738;21.652;2023-05-19T00:43:54;9.24;99.99
69162;DHT22;56269;51.738;21.652;2023-05-19T00:46:21;9.24;99.99
69162;DHT22;56269;51.738;21.652;2023-05-19T00:48:47;9.24;99.99
69162;DHT22;56269;51.738;21.652;2023-05-19T00:51:14;9.23;99.99
69162;DHT22;56269;51.738;21.652;2023-05-19T00:53:41;9.21;99.99
69162;DHT22;56269;51.738;21.652;2023-05-19T00:56:13;9.23;99.99
69162;DHT22;56269;51.738;21.652;2023-05-19T00:58:41;9.26;99.99
69162;DHT22;56269;51.738;21.652;2023-05-19T01:01:08;9.23;99.99
69162;DHT22;56269;51.738;21.652;2023-05-19T01:03:36;9.26;99.99
69162;DHT22;56269;51.738;21.652;2023-05-19T01:06:03;9.26;99.99
69162;DHT22;56269;51.738;21.652;2023-05-19T01:08:33;9.26;99.99
69162;DHT22;56269;51.738;21.652;2023-05-19T01:11:00;9.23;99.99
69162;DHT22;56269;51.738;21.652;2023-05-19T01:13:27;9.24;99.99
69162;DHT22;56269;51.738;21.652;2023-05-19T01:16:04;9.28;99.99
69162;DHT22;56269;51.738;21.652;2023-05-19T01:32:08;9.27;99.99
69162;DHT22;56269;51.738;21.652;2023-05-19T01:34:40;9.24;99.99
69162;DHT22;56269;51.738;21.652;2023-05-19T01:37:07;9.21;99.99
69162;DHT22;56269;51.738;21.652;2023-05-19T01:39:34;9.24;99.99
69162;DHT22;56269;51.738;21.652;2023-05-19T01:42:03;9.20;99.99
69162;DHT22;56269;51.738;21.652;2023-05-19T01:44:30;9.21;99.99
69162;DHT22;56269;51.738;21.652;2023-05-19T01:46:58;9.20;99.99
69162;DHT22;56269;51.738;21.652;2023-05-19T01:49:24;9.20;99.99
69162;DHT22;56269;51.738;21.652;2023-05-19T01:51:51;9.21;99.99
69162;DHT22;56269;51.738;21.652;2023-05-19T01:54:17;9.21;99.99
69162;DHT22;56269;51.738;21.652;2023-05-19T01:57:23;9.23;99.99
69162;DHT22;56269;51.738;21.652;2023-05-19T02:05:44;9.18;99.99
69162;DHT22;56269;51.738;21.652;2023-05-19T02:08:10;9.20;99.99
69162;DHT22;56269;51.738;21.652;2023-05-19T02:10:40;9.20;99.99
69162;DHT22;56269;51.738;21.652;2023-05-19T02:13:10;9.26;99.87
69162;DHT22;56269;51.738;21.652;2023-05-19T02:15:39;9.23;99.86
69162;DHT22;56269;51.738;21.652;2023-05-19T02:18:09;9.23;99.92
69162;DHT22;56269;51.738;21.652;2023-05-19T02:20:37;9.21;99.99
69162;DHT22;56269;51.738;21.652;2023-05-19T02:23:04;9.23;99.99
69162;DHT22;56269;51.738;21.652;2023-05-19T02:25:30;9.23;99.99
69162;DHT22;56269;51.738;21.652;2023-05-19T02:27:57;9.20;99.99
69162;DHT22;56269;51.738;21.652;2023-05-19T02:30:24;9.20;99.99
69162;DHT22;56269;51.738;21.652;2023-05-19T02:32:50;9.17;99.99
69162;DHT22;56269;51.738;21.652;2023-05-19T02:35:19;9.18;99.99
69162;DHT22;56269;51.738;21.652;2023-05-19T02:37:46;9.20;99.99
69162;DHT22;56269;51.738;21.652;2023-05-19T02:40:12;9.18;99.92
69162;DHT22;56269;51.738;21.652;2023-05-19T02:42:38;9.21;99.99
69162;DHT22;56269;51.738;21.652;2023-05-19T02:45:04;9.18;99.99
69162;DHT22;56269;51.738;21.652;2023-05-19T02:47:31;9.20;99.99
69162;DHT22;56269;51.738;21.652;2023-05-19T02:49:57;9.18;99.99
69162;DHT22;56269;51.738;21.652;2023-05-19T02:52:23;9.20;99.87
69162;DHT22;56269;51.738;21.652;2023-05-19T02:54:49;9.17;99.99
69162;DHT22;56269;51.738;21.652;2023-05-19T02:57:16;9.24;99.89
69162;DHT22;56269;51.738;21.652;2023-05-19T02:59:42;9.23;99.88
69162;DHT22;56269;51.738;21.652;2023-05-19T03:02:08;9.21;99.99
69162;DHT22;56269;51.738;21.652;2023-05-19T03:04:34;9.23;99.99
69162;DHT22;56269;51.738;21.652;2023-05-19T03:07:06;9.23;99.99
69162;DHT22;56269;51.738;21.652;2023-05-19T03:09:38;9.27;99.98
69162;DHT22;56269;51.738;21.652;2023-05-19T03:12:05;9.28;99.54
69162;DHT22;56269;51.738;21.652;2023-05-19T03:14:35;9.30;99.87
69162;DHT22;56269;51.738;21.652;2023-05-19T03:17:04;9.32;99.59
69162;DHT22;56269;51.738;21.652;2023-05-19T03:19:32;9.38;99.44
69162;DHT22;56269;51.738;21.652;2023-05-19T03:21:59;9.44;99.31
69162;DHT22;56269;51.738;21.652;2023-05-19T03:24:25;9.44;99.12
69162;DHT22;56269;51.738;21.652;2023-05-19T03:26:51;9.55;98.86
69162;DHT22;56269;51.738;21.652;2023-05-19T03:29:17;9.45;99.02
69162;DHT22;56269;51.738;21.652;2023-05-19T03:31:43;9.52;98.70
69162;DHT22;56269;51.738;21.652;2023-05-19T03:34:10;9.54;98.93
69162;DHT22;56269;51.738;21.652;2023-05-19T03:36:36;9.55;98.78
69162;DHT22;56269;51.738;21.652;2023-05-19T03:39:04;9.62;98.71
69162;DHT22;56269;51.738;21.652;2023-05-19T03:41:32;9.65;98.51
69162;DHT22;56269;51.738;21.652;2023-05-19T03:43:58;9.75;98.34
69162;DHT22;56269;51.738;21.652;2023-05-19T03:46:24;9.74;98.37
69162;DHT22;56269;51.738;21.652;2023-05-19T03:48:50;9.78;98.30
69162;DHT22;56269;51.738;21.652;2023-05-19T03:51:16;9.82;98.39
69162;DHT22;56269;51.738;21.652;2023-05-19T03:53:42;9.83;97.76
69162;DHT22;56269;51.738;21.652;2023-05-19T03:56:10;9.93;98.26
69162;DHT22;56269;51.738;21.652;2023-05-19T03:58:38;9.99;97.33
69162;DHT22;56269;51.738;21.652;2023-05-19T04:01:09;10.02;96.83
69162;DHT22;56269;51.738;21.652;2023-05-19T04:03:34;10.09;96.51
69162;DHT22;56269;51.738;21.652;2023-05-19T04:06:01;10.02;96.65
69162;DHT22;56269;51.738;21.652;2023-05-19T04:08:27;10.10;96.84
69162;DHT22;56269;51.738;21.652;2023-05-19T04:10:53;10.12;96.95
69162;DHT22;56269;51.738;21.652;2023-05-19T04:13:20;10.14;96.51
69162;DHT22;56269;51.738;21.652;2023-05-19T04:15:46;10.19;96.36
69162;DHT22;56269;51.738;21.652;2023-05-19T04:18:13;10.33;95.42
69162;DHT22;56269;51.738;21.652;2023-05-19T04:20:39;10.29;96.18
69162;DHT22;56269;51.738;21.652;2023-05-19T04:23:05;10.28;95.97
69162;DHT22;56269;51.738;21.652;2023-05-19T04:25:31;10.36;95.96
69162;DHT22;56269;51.738;21.652;2023-05-19T04:27:58;10.34;96.04
69162;DHT22;56269;51.738;21.652;2023-05-19T04:30:25;10.37;95.51
69162;DHT22;56269;51.738;21.652;2023-05-19T04:32:53;10.46;95.63
69162;DHT22;56269;51.738;21.652;2023-05-19T04:35:23;10.47;95.78
69162;DHT22;56269;51.738;21.652;2023-05-19T04:37:49;10.39;95.12
69162;DHT22;56269;51.738;21.652;2023-05-19T04:40:19;10.57;95.21
69162;DHT22;56269;51.738;21.652;2023-05-19T04:42:49;10.46;95.16
69162;DHT22;56269;51.738;21.652;2023-05-19T04:45:17;10.50;95.52
69162;DHT22;56269;51.738;21.652;2023-05-19T04:47:43;10.63;94.29
69162;DHT22;56269;51.738;21.652;2023-05-19T04:50:11;10.74;94.07
69162;DHT22;56269;51.738;21.652;2023-05-19T04:52:39;10.95;94.55
69162;DHT22;56269;51.738;21.652;2023-05-19T04:55:07;11.05;93.70
69162;DHT22;56269;51.738;21.652;2023-05-19T04:57:36;11.07;94.04
69162;DHT22;56269;51.738;21.652;2023-05-19T05:00:03;11.16;93.56
69162;DHT22;56269;51.738;21.652;2023-05-19T05:02:33;11.25;93.29
69162;DHT22;56269;51.738;21.652;2023-05-19T05:04:59;11.19;92.52
69162;DHT22;56269;51.738;21.652;2023-05-19T05:07:25;11.36;93.22
69162;DHT22;56269;51.738;21.652;2023-05-19T05:09:52;11.22;92.66
69162;DHT22;56269;51.738;21.652;2023-05-19T05:12:18;11.31;92.97
69162;DHT22;56269;51.738;21.652;2023-05-19T05:14:44;11.40;92.98
69162;DHT22;56269;51.738;21.652;2023-05-19T05:17:11;11.39;91.75
69162;DHT22;56269;51.738;21.652;2023-05-19T05:19:39;11.55;92.17
69162;DHT22;56269;51.738;21.652;2023-05-19T05:22:05;11.61;91.81
69162;DHT22;56269;51.738;21.652;2023-05-19T05:24:32;11.73;91.66
69162;DHT22;56269;51.738;21.652;2023-05-19T05:26:58;11.89;91.59
69162;DHT22;56269;51.738;21.652;2023-05-19T05:29:25;12.10;90.91
69162;DHT22;56269;51.738;21.652;2023-05-19T05:31:51;11.73;91.48
69162;DHT22;56269;51.738;21.652;2023-05-19T05:34:18;11.87;91.39
69162;DHT22;56269;51.738;21.652;2023-05-19T05:36:44;11.63;91.32
69162;DHT22;56269;51.738;21.652;2023-05-19T05:39:10;11.36;92.40
69162;DHT22;56269;51.738;21.652;2023-05-19T05:41:36;11.43;91.80
69162;DHT22;56269;51.738;21.652;2023-05-19T05:44:03;11.42;91.89
69162;DHT22;56269;51.738;21.652;2023-05-19T05:46:30;11.28;92.31
69162;DHT22;56269;51.738;21.652;2023-05-19T05:48:57;11.45;92.53
69162;DHT22;56269;51.738;21.652;2023-05-19T05:51:23;11.52;92.09
69162;DHT22;56269;51.738;21.652;2023-05-19T05:53:53;11.55;92.41
69162;DHT22;56269;51.738;21.652;2023-05-19T05:56:20;11.63;92.06
69162;DHT22;56269;51.738;21.652;2023-05-19T05:58:47;11.90;92.28
69162;DHT22;56269;51.738;21.652;2023-05-19T06:01:14;11.84;91.89
69162;DHT22;56269;51.738;21.652;2023-05-19T06:03:42;11.95;91.07
69162;DHT22;56269;51.738;21.652;2023-05-19T06:06:10;12.00;92.31
69162;DHT22;56269;51.738;21.652;2023-05-19T06:08:38;11.89;90.60
69162;DHT22;56269;51.738;21.652;2023-05-19T06:11:04;12.13;90.72
69162;DHT22;56269;51.738;21.652;2023-05-19T06:13:37;11.80;91.57
69162;DHT22;56269;51.738;21.652;2023-05-19T06:16:04;12.08;90.80
69162;DHT22;56269;51.738;21.652;2023-05-19T06:18:30;12.23;91.47
69162;DHT22;56269;51.738;21.652;2023-05-19T06:20:57;12.20;90.73
69162;DHT22;56269;51.738;21.652;2023-05-19T06:23:24;12.41;90.17
69162;DHT22;56269;51.738;21.652;2023-05-19T06:25:51;12.23;89.99
69162;DHT22;56269;51.738;21.652;2023-05-19T06:28:18;12.44;90.09
69162;DHT22;56269;51.738;21.652;2023-05-19T06:30:44;12.25;90.28
69162;DHT22;56269;51.738;21.652;2023-05-19T06:33:10;12.38;90.81
69162;DHT22;56269;51.738;21.652;2023-05-19T06:35:36;12.37;89.75
69162;DHT22;56269;51.738;21.652;2023-05-19T06:38:03;12.34;90.29
69162;DHT22;56269;51.738;21.652;2023-05-19T06:40:29;12.08;91.20
69162;DHT22;56269;51.738;21.652;2023-05-19T06:42:56;12.24;91.40
69162;DHT22;56269;51.738;21.652;2023-05-19T06:45:22;12.21;90.56
69162;DHT22;56269;51.738;21.652;2023-05-19T06:47:49;12.35;90.69
69162;DHT22;56269;51.738;21.652;2023-05-19T06:50:15;12.31;90.52
69162;DHT22;56269;51.738;21.652;2023-05-19T06:52:41;12.41;90.35
69162;DHT22;56269;51.738;21.652;2023-05-19T06:55:08;12.33;90.31
69162;DHT22;56269;51.738;21.652;2023-05-19T06:57:34;12.61;91.65
69162;DHT22;56269;51.738;21.652;2023-05-19T07:00:00;12.52;89.16
69162;DHT22;56269;51.738;21.652;2023-05-19T07:02:27;12.81;89.63
69162;DHT22;56269;51.738;21.652;2023-05-19T07:04:53;12.68;89.61
69162;DHT22;56269;51.738;21.652;2023-05-19T07:07:19;12.71;89.54
69162;DHT22;56269;51.738;21.652;2023-05-19T07:09:45;12.62;88.93
69162;DHT22;56269;51.738;21.652;2023-05-19T07:12:12;12.35;90.01
69162;DHT22;56269;51.738;21.652;2023-05-19T07:14:38;12.48;90.32
69162;DHT22;56269;51.738;21.652;2023-05-19T07:17:04;12.71;89.56
69162;DHT22;56269;51.738;21.652;2023-05-19T07:19:30;12.38;89.80
69162;DHT22;56269;51.738;21.652;2023-05-19T07:21:56;12.65;89.15
69162;DHT22;56269;51.738;21.652;2023-05-19T07:24:24;12.58;89.84
69162;DHT22;56269;51.738;21.652;2023-05-19T07:26:50;12.71;88.80
69162;DHT22;56269;51.738;21.652;2023-05-19T07:29:16;12.81;88.49
69162;DHT22;56269;51.738;21.652;2023-05-19T07:31:42;12.97;89.66
69162;DHT22;56269;51.738;21.652;2023-05-19T07:34:09;12.72;89.70
69162;DHT22;56269;51.738;21.652;2023-05-19T07:36:35;12.85;89.69
69162;DHT22;56269;51.738;21.652;2023-05-19T07:39:01;12.85;89.53
69162;DHT22;56269;51.738;21.652;2023-05-19T07:41:28;12.74;89.44
69162;DHT22;56269;51.738;21.652;2023-05-19T07:43:54;12.62;89.84
69162;DHT22;56269;51.738;21.652;2023-05-19T07:46:20;12.46;89.96
69162;DHT22;56269;51.738;21.652;2023-05-19T07:48:47;12.76;88.91
69162;DHT22;56269;51.738;21.652;2023-05-19T07:51:13;13.00;88.54
69162;DHT22;56269;51.738;21.652;2023-05-19T07:53:40;13.00;88.38
69162;DHT22;56269;51.738;21.652;2023-05-19T07:56:07;12.89;88.52
69162;DHT22;56269;51.738;21.652;2023-05-19T07:58:33;12.96;89.20
69162;DHT22;56269;51.738;21.652;2023-05-19T08:00:59;13.19;89.31
69162;DHT22;56269;51.738;21.652;2023-05-19T08:03:25;13.24;87.81
69162;DHT22;56269;51.738;21.652;2023-05-19T08:05:52;13.54;88.90
69162;DHT22;56269;51.738;21.652;2023-05-19T08:08:18;13.17;87.27
69162;DHT22;56269;51.738;21.652;2023-05-19T08:10:45;13.03;89.04
69162;DHT22;56269;51.738;21.652;2023-05-19T08:13:11;12.84;89.73
69162;DHT22;56269;51.738;21.652;2023-05-19T08:15:37;13.06;90.05
69162;DHT22;56269;51.738;21.652;2023-05-19T08:18:03;13.00;89.87
69162;DHT22;56269;51.738;21.652;2023-05-19T08:20:30;12.89;90.21
69162;DHT22;56269;51.738;21.652;2023-05-19T08:22:57;13.10;89.32
69162;DHT22;56269;51.738;21.652;2023-05-19T08:25:23;13.09;88.34
69162;DHT22;56269;51.738;21.652;2023-05-19T08:27:49;12.95;88.58
69162;DHT22;56269;51.738;21.652;2023-05-19T08:30:16;13.02;89.21
69162;DHT22;56269;51.738;21.652;2023-05-19T08:32:42;13.16;88.72
69162;DHT22;56269;51.738;21.652;2023-05-19T08:35:09;13.13;88.91
69162;DHT22;56269;51.738;21.652;2023-05-19T08:37:36;13.50;88.54
69162;DHT22;56269;51.738;21.652;2023-05-19T08:40:04;13.84;88.16
69162;DHT22;56269;51.738;21.652;2023-05-19T08:42:30;13.84;86.96
69162;DHT22;56269;51.738;21.652;2023-05-19T08:44:59;13.51;87.19
69162;DHT22;56269;51.738;21.652;2023-05-19T08:47:26;13.66;87.67
69162;DHT22;56269;51.738;21.652;2023-05-19T08:50:01;13.68;87.53
69162;DHT22;56269;51.738;21.652;2023-05-19T08:52:39;13.58;86.55
69162;DHT22;56269;51.738;21.652;2023-05-19T08:55:24;13.82;87.41
69162;DHT22;56269;51.738;21.652;2023-05-19T08:57:53;13.71;86.40
69162;DHT22;56269;51.738;21.652;2023-05-19T09:00:19;13.73;86.52
69162;DHT22;56269;51.738;21.652;2023-05-19T09:02:48;13.95;87.41
69162;DHT22;56269;51.738;21.652;2023-05-19T09:05:16;13.89;87.35
69162;DHT22;56269;51.738;21.652;2023-05-19T09:07:43;13.82;85.86
69162;DHT22;56269;51.738;21.652;2023-05-19T09:10:09;13.85;88.34
69162;DHT22;56269;51.738;21.652;2023-05-19T09:12:42;13.74;87.02
69162;DHT22;56269;51.738;21.652;2023-05-19T09:15:11;14.18;86.30
69162;DHT22;56269;51.738;21.652;2023-05-19T09:17:37;14.02;85.87
69162;DHT22;56269;51.738;21.652;2023-05-19T09:20:05;14.12;86.47
69162;DHT22;56269;51.738;21.652;2023-05-19T09:22:42;13.98;87.25
69162;DHT22;56269;51.738;21.652;2023-05-19T09:27:48;13.50;88.36
69162;DHT22;56269;51.738;21.652;2023-05-19T09:30:18;13.53;87.54
69162;DHT22;56269;51.738;21.652;2023-05-19T09:32:44;13.77;88.00
69162;DHT22;56269;51.738;21.652;2023-05-19T09:35:11;13.89;87.76
69162;DHT22;56269;51.738;21.652;2023-05-19T09:37:43;13.85;87.06
69162;DHT22;56269;51.738;21.652;2023-05-19T09:40:12;13.56;87.21
69162;DHT22;56269;51.738;21.652;2023-05-19T09:42:40;13.71;87.65
69162;DHT22;56269;51.738;21.652;2023-05-19T09:45:07;13.70;87.49
69162;DHT22;56269;51.738;21.652;2023-05-19T09:47:38;13.98;87.31
69162;DHT22;56269;51.738;21.652;2023-05-19T09:50:07;13.26;87.89
69162;DHT22;56269;51.738;21.652;2023-05-19T09:52:35;13.32;89.31
69162;DHT22;56269;51.738;21.652;2023-05-19T09:55:02;13.60;89.39
69162;DHT22;56269;51.738;21.652;2023-05-19T09:57:33;13.50;88.70
69162;DHT22;56269;51.738;21.652;2023-05-19T10:02:40;13.37;90.14
69162;DHT22;56269;51.738;21.652;2023-05-19T10:05:16;13.60;89.10
69162;DHT22;56269;51.738;21.652;2023-05-19T10:07:53;13.53;87.98
69162;DHT22;56269;51.738;21.652;2023-05-19T10:10:20;13.58;89.16
69162;DHT22;56269;51.738;21.652;2023-05-19T10:12:48;13.73;89.65
69162;DHT22;56269;51.738;21.652;2023-05-19T10:15:16;13.60;89.42
69162;DHT22;56269;51.738;21.652;2023-05-19T10:17:43;13.40;89.78
69162;DHT22;56269;51.738;21.652;2023-05-19T10:20:14;13.82;87.60
69162;DHT22;56269;51.738;21.652;2023-05-19T10:22:44;13.84;88.51
69162;DHT22;56269;51.738;21.652;2023-05-19T10:25:13;13.74;87.76
69162;DHT22;56269;51.738;21.652;2023-05-19T10:27:42;13.58;88.04
69162;DHT22;56269;51.738;21.652;2023-05-19T10:30:15;13.67;88.01
69162;DHT22;56269;51.738;21.652;2023-05-19T10:32:43;14.11;88.00
69162;DHT22;56269;51.738;21.652;2023-05-19T10:37:54;14.02;86.65
69162;DHT22;56269;51.738;21.652;2023-05-19T10:40:32;14.09;87.66
69162;DHT22;56269;51.738;21.652;2023-05-19T10:43:07;14.04;87.70
69162;DHT22;56269;51.738;21.652;2023-05-19T10:45:47;14.30;89.31
69162;DHT22;56269;51.738;21.652;2023-05-19T10:48:14;14.33;87.65
69162;DHT22;56269;51.738;21.652;2023-05-19T10:50:43;13.68;88.49
69162;DHT22;56269;51.738;21.652;2023-05-19T10:53:14;13.74;90.46
69162;DHT22;56269;51.738;21.652;2023-05-19T10:55:45;13.84;89.42
69162;DHT22;56269;51.738;21.652;2023-05-19T10:58:13;14.12;87.54
69162;DHT22;56269;51.738;21.652;2023-05-19T11:00:40;14.15;87.84
69162;DHT22;56269;51.738;21.652;2023-05-19T11:03:13;13.98;87.79
69162;DHT22;56269;51.738;21.652;2023-05-19T11:05:41;14.00;88.14
69162;DHT22;56269;51.738;21.652;2023-05-19T11:08:11;13.94;89.56
69162;DHT22;56269;51.738;21.652;2023-05-19T11:10:38;13.91;88.84
69162;DHT22;56269;51.738;21.652;2023-05-19T11:13:04;13.95;88.36
69162;DHT22;56269;51.738;21.652;2023-05-19T11:15:34;14.08;87.83
69162;DHT22;56269;51.738;21.652;2023-05-19T11:18:01;14.39;87.04
69162;DHT22;56269;51.738;21.652;2023-05-19T11:20:30;14.58;88.50
69162;DHT22;56269;51.738;21.652;2023-05-19T11:25:44;14.38;87.43
69162;DHT22;56269;51.738;21.652;2023-05-19T11:28:12;14.39;87.06
69162;DHT22;56269;51.738;21.652;2023-05-19T11:30:41;14.38;88.23
69162;DHT22;56269;51.738;21.652;2023-05-19T11:33:08;14.21;88.50
69162;DHT22;56269;51.738;21.652;2023-05-19T11:35:35;14.08;88.47
69162;DHT22;56269;51.738;21.652;2023-05-19T11:38:02;14.17;89.24
69162;DHT22;56269;51.738;21.652;2023-05-19T11:40:29;14.25;88.30
69162;DHT22;56269;51.738;21.652;2023-05-19T11:42:55;14.12;88.25
69162;DHT22;56269;51.738;21.652;2023-05-19T11:45:25;14.38;87.83
69162;DHT22;56269;51.738;21.652;2023-05-19T11:47:54;14.63;87.01
69162;DHT22;56269;51.738;21.652;2023-05-19T11:50:21;14.66;86.44
69162;DHT22;56269;51.738;21.652;2023-05-19T11:52:50;14.59;87.49
69162;DHT22;56269;51.738;21.652;2023-05-19T11:55:17;14.62;86.76
69162;DHT22;56269;51.738;21.652;2023-05-19T11:57:57;14.46;87.65
69162;DHT22;56269;51.738;21.652;2023-05-19T12:00:28;14.33;87.73
69162;DHT22;56269;51.738;21.652;2023-05-19T12:02:55;14.36;87.44
69162;DHT22;56269;51.738;21.652;2023-05-19T12:05:25;14.63;88.39
69162;DHT22;56269;51.738;21.652;2023-05-19T12:07:53;14.62;87.18
69162;DHT22;56269;51.738;21.652;2023-05-19T12:10:26;14.91;86.67
69162;DHT22;56269;51.738;21.652;2023-05-19T12:12:54;14.96;87.18
69162;DHT22;56269;51.738;21.652;2023-05-19T12:15:21;15.00;86.97
69162;DHT22;56269;51.738;21.652;2023-05-19T12:18:00;14.91;86.13
69162;DHT22;56269;51.738;21.652;2023-05-19T12:20:28;14.66;87.06
69162;DHT22;56269;51.738;21.652;2023-05-19T12:22:57;14.60;87.65
69162;DHT22;56269;51.738;21.652;2023-05-19T12:25:24;14.94;87.51
69162;DHT22;56269;51.738;21.652;2023-05-19T12:27:50;15.01;86.63
69162;DHT22;56269;51.738;21.652;2023-05-19T12:30:25;14.91;86.94
69162;DHT22;56269;51.738;21.652;2023-05-19T12:32:53;14.60;86.97
69162;DHT22;56269;51.738;21.652;2023-05-19T12:35:19;14.75;87.23
69162;DHT22;56269;51.738;21.652;2023-05-19T12:37:49;14.70;88.04
69162;DHT22;56269;51.738;21.652;2023-05-19T12:40:16;14.62;87.74
69162;DHT22;56269;51.738;21.652;2023-05-19T12:42:45;14.69;88.42
69162;DHT22;56269;51.738;21.652;2023-05-19T12:45:13;14.43;88.34
69162;DHT22;56269;51.738;21.652;2023-05-19T12:47:39;14.68;89.11
69162;DHT22;56269;51.738;21.652;2023-05-19T12:50:07;14.90;89.61
69162;DHT22;56269;51.738;21.652;2023-05-19T12:52:48;14.99;88.20
69162;DHT22;56269;51.738;21.652;2023-05-19T12:55:17;15.01;87.71
69162;DHT22;56269;51.738;21.652;2023-05-19T12:57:48;14.65;87.51
69162;DHT22;56269;51.738;21.652;2023-05-19T13:00:19;14.42;88.84
69162;DHT22;56269;51.738;21.652;2023-05-19T13:03:06;14.52;89.73
69162;DHT22;56269;51.738;21.652;2023-05-19T13:05:38;14.66;88.77
69162;DHT22;56269;51.738;21.652;2023-05-19T13:08:10;14.76;88.38
69162;DHT22;56269;51.738;21.652;2023-05-19T13:10:38;14.68;88.11
69162;DHT22;56269;51.738;21.652;2023-05-19T13:13:06;14.63;88.81
69162;DHT22;56269;51.738;21.652;2023-05-19T13:15:36;14.80;89.14
69162;DHT22;56269;51.738;21.652;2023-05-19T13:18:04;14.76;87.68
69162;DHT22;56269;51.738;21.652;2023-05-19T13:20:35;14.58;89.11
69162;DHT22;56269;51.738;21.652;2023-05-19T13:23:01;14.72;88.84
69162;DHT22;56269;51.738;21.652;2023-05-19T13:25:28;14.76;88.35
69162;DHT22;56269;51.738;21.652;2023-05-19T13:27:55;14.69;88.56
69162;DHT22;56269;51.738;21.652;2023-05-19T13:30:22;14.66;89.69
69162;DHT22;56269;51.738;21.652;2023-05-19T13:32:48;14.56;89.47
69162;DHT22;56269;51.738;21.652;2023-05-19T13:35:15;14.73;90.03
69162;DHT22;56269;51.738;21.652;2023-05-19T13:37:41;14.91;89.99
69162;DHT22;56269;51.738;21.652;2023-05-19T13:40:08;14.80;88.91
69162;DHT22;56269;51.738;21.652;2023-05-19T13:42:34;14.87;88.07
69162;DHT22;56269;51.738;21.652;2023-05-19T13:45:01;14.76;88.29
69162;DHT22;56269;51.738;21.652;2023-05-19T13:47:28;14.63;88.92
69162;DHT22;56269;51.738;21.652;2023-05-19T13:49:54;14.83;89.16
69162;DHT22;56269;51.738;21.652;2023-05-19T13:52:21;14.96;88.77
69162;DHT22;56269;51.738;21.652;2023-05-19T13:54:47;14.89;87.67
69162;DHT22;56269;51.738;21.652;2023-05-19T13:57:16;14.94;88.32
69162;DHT22;56269;51.738;21.652;2023-05-19T13:59:43;14.91;88.92
69162;DHT22;56269;51.738;21.652;2023-05-19T14:02:09;14.77;89.94
69162;DHT22;56269;51.738;21.652;2023-05-19T14:04:36;14.91;89.58
69162;DHT22;56269;51.738;21.652;2023-05-19T14:07:04;14.81;89.72
69162;DHT22;56269;51.738;21.652;2023-05-19T14:09:30;14.79;90.75
69162;DHT22;56269;51.738;21.652;2023-05-19T14:11:57;14.66;90.63
69162;DHT22;56269;51.738;21.652;2023-05-19T14:14:24;14.75;89.63
69162;DHT22;56269;51.738;21.652;2023-05-19T14:16:50;14.56;90.43
69162;DHT22;56269;51.738;21.652;2023-05-19T14:19:16;14.65;90.66
69162;DHT22;56269;51.738;21.652;2023-05-19T14:21:43;14.49;90.50
69162;DHT22;56269;51.738;21.652;2023-05-19T14:24:09;14.73;90.17
69162;DHT22;56269;51.738;21.652;2023-05-19T14:26:35;14.77;90.07
69162;DHT22;56269;51.738;21.652;2023-05-19T14:29:02;14.59;90.28
69162;DHT22;56269;51.738;21.652;2023-05-19T14:31:28;14.86;89.43
69162;DHT22;56269;51.738;21.652;2023-05-19T14:33:54;14.91;89.84
69162;DHT22;56269;51.738;21.652;2023-05-19T14:36:20;14.99;90.44
69162;DHT22;56269;51.738;21.652;2023-05-19T14:38:47;14.87;89.06
69162;DHT22;56269;51.738;21.652;2023-05-19T14:41:13;14.81;89.48
69162;DHT22;56269;51.738;21.652;2023-05-19T14:43:39;14.76;89.73
69162;DHT22;56269;51.738;21.652;2023-05-19T14:46:07;14.80;89.90
69162;DHT22;56269;51.738;21.652;2023-05-19T14:48:34;14.81;90.17
69162;DHT22;56269;51.738;21.652;2023-05-19T14:51:00;14.80;89.95
69162;DHT22;56269;51.738;21.652;2023-05-19T14:53:26;14.81;90.10
69162;DHT22;56269;51.738;21.652;2023-05-19T14:55:53;14.81;89.96
69162;DHT22;56269;51.738;21.652;2023-05-19T14:58:19;14.79;90.60
69162;DHT22;56269;51.738;21.652;2023-05-19T15:00:46;14.79;90.04
69162;DHT22;56269;51.738;21.652;2023-05-19T15:03:13;14.77;90.14
69162;DHT22;56269;51.738;21.652;2023-05-19T15:05:39;14.69;90.93
69162;DHT22;56269;51.738;21.652;2023-05-19T15:08:05;14.73;90.46
69162;DHT22;56269;51.738;21.652;2023-05-19T15:10:32;14.70;90.09
69162;DHT22;56269;51.738;21.652;2023-05-19T15:12:58;14.70;90.65
69162;DHT22;56269;51.738;21.652;2023-05-19T15:15:26;14.66;90.66
69162;DHT22;56269;51.738;21.652;2023-05-19T15:17:52;14.72;90.96
69162;DHT22;56269;51.738;21.652;2023-05-19T15:20:18;14.81;91.45
69162;DHT22;56269;51.738;21.652;2023-05-19T15:22:45;14.89;89.41
69162;DHT22;56269;51.738;21.652;2023-05-19T15:25:11;14.84;90.01
69162;DHT22;56269;51.738;21.652;2023-05-19T15:27:37;14.63;91.59
69162;DHT22;56269;51.738;21.652;2023-05-19T15:30:04;14.83;91.08
69162;DHT22;56269;51.738;21.652;2023-05-19T15:32:31;14.80;90.25
69162;DHT22;56269;51.738;21.652;2023-05-19T15:34:57;14.90;91.14
69162;DHT22;56269;51.738;21.652;2023-05-19T15:37:23;14.91;90.82
69162;DHT22;56269;51.738;21.652;2023-05-19T15:39:49;14.83;90.24
69162;DHT22;56269;51.738;21.652;2023-05-19T15:42:16;14.76;92.07
69162;DHT22;56269;51.738;21.652;2023-05-19T15:44:42;14.79;91.04
69162;DHT22;56269;51.738;21.652;2023-05-19T15:47:11;14.63;92.33
69162;DHT22;56269;51.738;21.652;2023-05-19T15:49:37;14.55;92.01
69162;DHT22;56269;51.738;21.652;2023-05-19T15:52:03;14.53;91.28
69162;DHT22;56269;51.738;21.652;2023-05-19T15:54:29;14.46;91.69